Vb Moussa — CNA4266 — position and weather

sailwx.info

Track history (hours):
 
Tides and Currents Weather Stations Pressure Air Temp Water Temp Dewpoint Dewpoint Depression Visibility Wind Speed Wind Dir Waves Ship Positions

Vb Moussa

Last reported at 2017-Sep-13 04:51 UTC. Time now 2017-Sep-19 17:23 UTC.
Position N 35°54' W 005°30'.

Length 15 m.

Type: Pilot. MMSI: 242901000.

Date/timePositionNaut miles runAvg speedWind from/ knotsBaromVisibWave heightAir tempDewpointWater temp
2017-Sep-13 04:51N 35°54' W 005°30'1 0.8
2017-Sep-13 04:15N 35°54' W 005°30'3 1.6
2017-Sep-13 02:28N 35°55' W 005°33'2 1.0
2017-Sep-13 00:09N 35°54' W 005°30'1 1.8
2017-Sep-12 23:45N 35°53' W 005°31'0 0.2
2017-Sep-12 23:12N 35°53' W 005°31'1 4.5
2017-Sep-12 22:56N 35°54' W 005°30'0 0.0
2017-Sep-11 23:04N 35°54' W 005°30'0 0.0
2017-Sep-10 13:54N 35°54' W 005°31'0 0.0
2017-Sep-10 05:37N 35°53' W 005°31'0 0.5
2017-Sep-10 04:57N 35°53' W 005°31'1 0.4
2017-Sep-10 02:54N 35°54' W 005°30'1 1.8
2017-Sep-10 02:27N 35°53' W 005°31'0 0.0
2017-Sep-08 19:28N 35°54' W 005°31'0 0.5
2017-Sep-08 18:44N 35°54' W 005°30'0 1.5
2017-Sep-08 18:29N 35°53' W 005°31'1 0.0
2017-Sep-08 05:25N 35°54' W 005°30'0 0.0
2017-Sep-08 03:20N 35°54' W 005°30'0 0.0
2017-Sep-07 21:13N 35°54' W 005°30'1 2.9
2017-Sep-07 20:54N 35°53' W 005°31'1 0.6
2017-Sep-07 19:49N 35°54' W 005°30'0 0.0
2017-Sep-07 18:42N 35°53' W 005°31'0 1.2
2017-Sep-07 18:29N 35°53' W 005°31'0 0.0
2017-Sep-07 04:22N 35°53' W 005°31'1 0.3
2017-Sep-07 01:03N 35°54' W 005°30'116.9
2017-Sep-07 01:00N 35°53' W 005°31'0 0.1
2017-Sep-06 20:38N 35°54' W 005°31'1 1.0
2017-Sep-06 20:07N 35°53' W 005°31'1 2.6
2017-Sep-06 19:54N 35°54' W 005°30'1 0.1
2017-Sep-06 05:59N 35°54' W 005°32'1 0.8
2017-Sep-06 04:14N 35°54' W 005°30'0 0.1
2017-Sep-06 03:53N 35°54' W 005°30'0 0.1
2017-Sep-05 20:42N 35°54' W 005°30'1 1.8
2017-Sep-05 20:08N 35°53' W 005°31'1 0.0
2017-Sep-04 01:13N 35°54' W 005°30'1 1.1
2017-Sep-04 00:44N 35°53' W 005°31'  
Track history (hours):
 
Tides and Currents Weather Stations Pressure Air Temp Water Temp Dewpoint Dewpoint Depression Visibility Wind Speed Wind Dir Waves Ship Positions

Vb Moussa

Last reported at 2017-Sep-13 04:51 UTC. Time now 2017-Sep-19 17:23 UTC.
Position N 35°54' W 005°30'.

Length 15 m.

Type: Pilot. MMSI: 242901000.

Date/timePositionNaut miles runAvg speedWind from/ knotsBaromVisibWave heightAir tempDewpointWater temp
2017-Sep-13 04:51N 35°54' W 005°30'1 0.8
2017-Sep-13 04:15N 35°54' W 005°30'3 1.6
2017-Sep-13 02:28N 35°55' W 005°33'2 1.0
2017-Sep-13 00:09N 35°54' W 005°30'1 1.8
2017-Sep-12 23:45N 35°53' W 005°31'0 0.2
2017-Sep-12 23:12N 35°53' W 005°31'1 4.5
2017-Sep-12 22:56N 35°54' W 005°30'0 0.0
2017-Sep-11 23:04N 35°54' W 005°30'0 0.0
2017-Sep-10 13:54N 35°54' W 005°31'0 0.0
2017-Sep-10 05:37N 35°53' W 005°31'0 0.5
2017-Sep-10 04:57N 35°53' W 005°31'1 0.4
2017-Sep-10 02:54N 35°54' W 005°30'1 1.8
2017-Sep-10 02:27N 35°53' W 005°31'0 0.0
2017-Sep-08 19:28N 35°54' W 005°31'0 0.5
2017-Sep-08 18:44N 35°54' W 005°30'0 1.5
2017-Sep-08 18:29N 35°53' W 005°31'1 0.0
2017-Sep-08 05:25N 35°54' W 005°30'0 0.0
2017-Sep-08 03:20N 35°54' W 005°30'0 0.0
2017-Sep-07 21:13N 35°54' W 005°30'1 2.9
2017-Sep-07 20:54N 35°53' W 005°31'1 0.6
2017-Sep-07 19:49N 35°54' W 005°30'0 0.0
2017-Sep-07 18:42N 35°53' W 005°31'0 1.2
2017-Sep-07 18:29N 35°53' W 005°31'0 0.0
2017-Sep-07 04:22N 35°53' W 005°31'1 0.3
2017-Sep-07 01:03N 35°54' W 005°30'116.9
2017-Sep-07 01:00N 35°53' W 005°31'0 0.1
2017-Sep-06 20:38N 35°54' W 005°31'1 1.0
2017-Sep-06 20:07N 35°53' W 005°31'1 2.6
2017-Sep-06 19:54N 35°54' W 005°30'1 0.1
2017-Sep-06 05:59N 35°54' W 005°32'1 0.8
2017-Sep-06 04:14N 35°54' W 005°30'0 0.1
2017-Sep-06 03:53N 35°54' W 005°30'0 0.1
2017-Sep-05 20:42N 35°54' W 005°30'1 1.8
2017-Sep-05 20:08N 35°53' W 005°31'1 0.0
2017-Sep-04 01:13N 35°54' W 005°30'1 1.1
2017-Sep-04 00:44N 35°53' W 005°31'  

Dump ship's entire track history